sensor_id;sensor_type;location;lat;lon;timestamp;pressure;altitude;pressure_sealevel;temperature;humidity
46638;BME280;32365;46.938;7.390;2022-07-22T05:31:13;95532.19;;;18.00;80.77
46638;BME280;32365;46.938;7.390;2022-07-22T05:33:41;95530.84;;;18.03;81.11
46638;BME280;32365;46.938;7.390;2022-07-22T05:36:08;95524.53;;;18.09;80.81
46638;BME280;32365;46.938;7.390;2022-07-22T05:38:36;95527.31;;;18.23;80.92
46638;BME280;32365;46.938;7.390;2022-07-22T05:41:03;95529.63;;;18.30;80.06
46638;BME280;32365;46.938;7.390;2022-07-22T05:43:30;95530.91;;;18.38;80.66
46638;BME280;32365;46.938;7.390;2022-07-22T05:45:57;95526.84;;;18.51;79.93
46638;BME280;32365;46.938;7.390;2022-07-22T05:48:25;95529.97;;;18.58;79.67
46638;BME280;32365;46.938;7.390;2022-07-22T05:50:52;95525.72;;;18.62;79.08
46638;BME280;32365;46.938;7.390;2022-07-22T05:53:19;95513.94;;;18.59;78.95
46638;BME280;32365;46.938;7.390;2022-07-22T05:55:45;95521.91;;;18.79;78.46
46638;BME280;32365;46.938;7.390;2022-07-22T05:58:12;95512.19;;;18.79;79.77
46638;BME280;32365;46.938;7.390;2022-07-22T06:00:39;95515.63;;;18.80;78.34
46638;BME280;32365;46.938;7.390;2022-07-22T06:03:07;95516.59;;;18.84;78.21
46638;BME280;32365;46.938;7.390;2022-07-22T06:05:35;95517.00;;;19.01;77.05
46638;BME280;32365;46.938;7.390;2022-07-22T06:08:02;95523.69;;;19.18;77.10
46638;BME280;32365;46.938;7.390;2022-07-22T06:10:29;95532.53;;;19.22;76.91
46638;BME280;32365;46.938;7.390;2022-07-22T06:12:56;95530.53;;;19.38;75.14
46638;BME280;32365;46.938;7.390;2022-07-22T06:15:23;95527.72;;;19.53;74.79
46638;BME280;32365;46.938;7.390;2022-07-22T06:17:49;95528.22;;;19.56;74.84
46638;BME280;32365;46.938;7.390;2022-07-22T06:20:16;95526.44;;;19.51;75.21
46638;BME280;32365;46.938;7.390;2022-07-22T06:22:44;95527.19;;;19.57;75.58
46638;BME280;32365;46.938;7.390;2022-07-22T06:25:11;95525.28;;;19.81;75.52
46638;BME280;32365;46.938;7.390;2022-07-22T06:27:38;95524.50;;;19.81;74.91
46638;BME280;32365;46.938;7.390;2022-07-22T06:30:05;95522.06;;;20.09;71.99
46638;BME280;32365;46.938;7.390;2022-07-22T06:32:33;95513.03;;;20.15;72.76
46638;BME280;32365;46.938;7.390;2022-07-22T06:35:01;95520.28;;;20.04;72.66
46638;BME280;32365;46.938;7.390;2022-07-22T06:37:28;95522.41;;;20.02;73.02
46638;BME280;32365;46.938;7.390;2022-07-22T06:39:56;95523.47;;;20.39;71.22
46638;BME280;32365;46.938;7.390;2022-07-22T06:42:23;95519.56;;;20.18;71.11
46638;BME280;32365;46.938;7.390;2022-07-22T06:44:50;95516.28;;;20.45;71.19
46638;BME280;32365;46.938;7.390;2022-07-22T06:47:17;95520.88;;;20.53;71.07
46638;BME280;32365;46.938;7.390;2022-07-22T06:49:44;95529.50;;;20.73;70.78
46638;BME280;32365;46.938;7.390;2022-07-22T06:52:10;95522.94;;;20.70;70.13
46638;BME280;32365;46.938;7.390;2022-07-22T06:54:37;95524.47;;;20.76;69.48
46638;BME280;32365;46.938;7.390;2022-07-22T06:57:05;95518.66;;;21.07;71.83
46638;BME280;32365;46.938;7.390;2022-07-22T06:59:33;95516.94;;;21.31;69.63
46638;BME280;32365;46.938;7.390;2022-07-22T07:01:59;95516.91;;;21.45;67.66
46638;BME280;32365;46.938;7.390;2022-07-22T07:04:26;95508.44;;;21.62;68.61
46638;BME280;32365;46.938;7.390;2022-07-22T07:06:53;95518.28;;;21.84;67.73
46638;BME280;32365;46.938;7.390;2022-07-22T07:09:20;95509.59;;;21.70;67.31
46638;BME280;32365;46.938;7.390;2022-07-22T07:11:46;95518.19;;;21.47;67.67
46638;BME280;32365;46.938;7.390;2022-07-22T07:14:14;95510.00;;;21.77;68.29
46638;BME280;32365;46.938;7.390;2022-07-22T07:16:41;95521.59;;;22.12;66.94
46638;BME280;32365;46.938;7.390;2022-07-22T07:19:08;95515.03;;;22.24;66.53
46638;BME280;32365;46.938;7.390;2022-07-22T07:21:35;95519.75;;;22.50;64.42
46638;BME280;32365;46.938;7.390;2022-07-22T10:56:21;95428.50;;;33.99;33.70
46638;BME280;32365;46.938;7.390;2022-07-22T10:58:55;95425.44;;;34.11;33.23
46638;BME280;32365;46.938;7.390;2022-07-22T11:01:26;95424.78;;;35.08;34.74
46638;BME280;32365;46.938;7.390;2022-07-22T11:03:53;95431.09;;;36.61;30.89
46638;BME280;32365;46.938;7.390;2022-07-22T11:06:24;95424.69;;;35.63;32.96
46638;BME280;32365;46.938;7.390;2022-07-22T11:08:53;95427.22;;;35.91;32.78
46638;BME280;32365;46.938;7.390;2022-07-22T11:11:38;95425.00;;;37.76;28.74
46638;BME280;32365;46.938;7.390;2022-07-22T11:14:18;95425.75;;;37.45;29.42
46638;BME280;32365;46.938;7.390;2022-07-22T11:16:46;95428.19;;;38.56;26.50
46638;BME280;32365;46.938;7.390;2022-07-22T11:19:13;95421.88;;;39.14;25.44
46638;BME280;32365;46.938;7.390;2022-07-22T11:21:40;95422.50;;;40.02;25.12
46638;BME280;32365;46.938;7.390;2022-07-22T11:24:08;95421.72;;;37.22;29.66
46638;BME280;32365;46.938;7.390;2022-07-22T11:26:41;95415.84;;;38.28;25.62
46638;BME280;32365;46.938;7.390;2022-07-22T11:29:10;95410.19;;;38.46;27.20
46638;BME280;32365;46.938;7.390;2022-07-22T11:31:37;95417.00;;;38.82;27.81
46638;BME280;32365;46.938;7.390;2022-07-22T11:34:06;95416.56;;;38.59;27.37
46638;BME280;32365;46.938;7.390;2022-07-22T11:36:34;95418.06;;;37.43;27.84
46638;BME280;32365;46.938;7.390;2022-07-22T11:39:02;95414.38;;;38.23;26.05
46638;BME280;32365;46.938;7.390;2022-07-22T11:41:30;95409.59;;;37.76;28.90
46638;BME280;32365;46.938;7.390;2022-07-22T11:43:59;95408.09;;;36.99;29.13
46638;BME280;32365;46.938;7.390;2022-07-22T11:46:26;95402.19;;;38.11;25.64
46638;BME280;32365;46.938;7.390;2022-07-22T11:48:53;95388.69;;;39.91;23.21
46638;BME280;32365;46.938;7.390;2022-07-22T11:51:27;95391.56;;;37.66;26.67
46638;BME280;32365;46.938;7.390;2022-07-22T11:53:54;95387.72;;;38.25;24.95
46638;BME280;32365;46.938;7.390;2022-07-22T11:56:21;95378.78;;;38.28;26.34
46638;BME280;32365;46.938;7.390;2022-07-22T11:58:49;95380.97;;;38.10;25.63
46638;BME280;32365;46.938;7.390;2022-07-22T12:01:22;95381.75;;;39.09;24.78
46638;BME280;32365;46.938;7.390;2022-07-22T12:03:50;95377.47;;;39.52;23.79
46638;BME280;32365;46.938;7.390;2022-07-22T12:06:19;95363.88;;;38.68;25.24
46638;BME280;32365;46.938;7.390;2022-07-22T12:08:48;95365.59;;;39.25;23.08
46638;BME280;32365;46.938;7.390;2022-07-22T12:11:17;95372.63;;;38.75;24.16
46638;BME280;32365;46.938;7.390;2022-07-22T12:13:46;95367.81;;;38.12;25.59
46638;BME280;32365;46.938;7.390;2022-07-22T12:16:21;95365.53;;;38.38;25.45
46638;BME280;32365;46.938;7.390;2022-07-22T12:18:54;95374.47;;;40.03;22.58
46638;BME280;32365;46.938;7.390;2022-07-22T12:21:21;95367.75;;;37.22;24.76
46638;BME280;32365;46.938;7.390;2022-07-22T12:24:06;95363.25;;;37.78;26.72
46638;BME280;32365;46.938;7.390;2022-07-22T12:26:40;95365.06;;;38.15;26.22
46638;BME280;32365;46.938;7.390;2022-07-22T12:29:20;95361.66;;;39.87;24.17
46638;BME280;32365;46.938;7.390;2022-07-22T12:31:50;95358.16;;;39.50;21.46
46638;BME280;32365;46.938;7.390;2022-07-22T12:34:35;95351.41;;;39.78;22.61
46638;BME280;32365;46.938;7.390;2022-07-22T12:37:12;95350.47;;;38.60;25.70
46638;BME280;32365;46.938;7.390;2022-07-22T12:39:52;95342.00;;;38.58;24.35
46638;BME280;32365;46.938;7.390;2022-07-22T12:42:19;95346.53;;;40.39;22.03
46638;BME280;32365;46.938;7.390;2022-07-22T12:44:51;95342.44;;;39.81;21.52
46638;BME280;32365;46.938;7.390;2022-07-22T12:47:45;95341.63;;;39.24;23.38
46638;BME280;32365;46.938;7.390;2022-07-22T12:50:23;95340.25;;;39.36;25.52
46638;BME280;32365;46.938;7.390;2022-07-22T12:52:51;95334.41;;;38.73;24.72
46638;BME280;32365;46.938;7.390;2022-07-22T12:55:18;95335.66;;;39.73;22.63
46638;BME280;32365;46.938;7.390;2022-07-22T12:57:45;95333.00;;;40.23;19.52
46638;BME280;32365;46.938;7.390;2022-07-22T13:00:16;95333.06;;;40.98;21.00
46638;BME280;32365;46.938;7.390;2022-07-22T13:02:44;95338.75;;;40.08;22.79
46638;BME280;32365;46.938;7.390;2022-07-22T13:05:11;95335.53;;;40.92;22.86
46638;BME280;32365;46.938;7.390;2022-07-22T13:07:38;95337.31;;;40.04;21.28
46638;BME280;32365;46.938;7.390;2022-07-22T13:10:06;95333.97;;;39.59;23.70
46638;BME280;32365;46.938;7.390;2022-07-22T13:12:33;95333.81;;;40.53;25.06
46638;BME280;32365;46.938;7.390;2022-07-22T13:14:59;95338.94;;;41.39;20.19
46638;BME280;32365;46.938;7.390;2022-07-22T13:17:26;95333.53;;;40.80;21.59
46638;BME280;32365;46.938;7.390;2022-07-22T13:19:54;95336.81;;;40.25;24.73
46638;BME280;32365;46.938;7.390;2022-07-22T13:22:21;95333.16;;;40.94;22.71
46638;BME280;32365;46.938;7.390;2022-07-22T13:24:48;95334.56;;;41.16;22.70
46638;BME280;32365;46.938;7.390;2022-07-22T13:27:15;95328.53;;;39.43;23.27
46638;BME280;32365;46.938;7.390;2022-07-22T13:29:42;95331.91;;;40.37;23.22
46638;BME280;32365;46.938;7.390;2022-07-22T13:32:09;95329.88;;;40.87;18.71
46638;BME280;32365;46.938;7.390;2022-07-22T13:34:36;95317.50;;;41.58;20.30
46638;BME280;32365;46.938;7.390;2022-07-22T13:37:04;95323.94;;;40.62;22.73
46638;BME280;32365;46.938;7.390;2022-07-22T13:39:30;95329.22;;;40.00;21.36
46638;BME280;32365;46.938;7.390;2022-07-22T13:41:57;95310.09;;;38.49;24.22
46638;BME280;32365;46.938;7.390;2022-07-22T13:44:24;95305.91;;;38.45;24.43
46638;BME280;32365;46.938;7.390;2022-07-22T13:46:51;95308.69;;;39.66;21.66
46638;BME280;32365;46.938;7.390;2022-07-22T13:49:17;95306.72;;;39.30;23.30
46638;BME280;32365;46.938;7.390;2022-07-22T13:51:44;95305.59;;;39.84;22.38
46638;BME280;32365;46.938;7.390;2022-07-22T13:54:12;95302.38;;;40.06;19.70
46638;BME280;32365;46.938;7.390;2022-07-22T13:56:39;95303.50;;;40.87;20.75
46638;BME280;32365;46.938;7.390;2022-07-22T13:59:06;95306.31;;;40.84;21.34
46638;BME280;32365;46.938;7.390;2022-07-22T14:01:32;95310.09;;;40.40;21.75
46638;BME280;32365;46.938;7.390;2022-07-22T14:03:59;95302.78;;;40.54;20.01
46638;BME280;32365;46.938;7.390;2022-07-22T14:06:27;95300.69;;;41.33;20.42
46638;BME280;32365;46.938;7.390;2022-07-22T14:08:54;95281.06;;;38.98;23.18
46638;BME280;32365;46.938;7.390;2022-07-22T14:11:22;95287.19;;;40.58;18.95
46638;BME280;32365;46.938;7.390;2022-07-22T14:13:49;95293.59;;;40.81;19.09
46638;BME280;32365;46.938;7.390;2022-07-22T14:16:15;95289.19;;;40.41;19.70
46638;BME280;32365;46.938;7.390;2022-07-22T14:19:01;95283.88;;;41.38;20.06
46638;BME280;32365;46.938;7.390;2022-07-22T14:21:28;95291.41;;;41.99;18.05
46638;BME280;32365;46.938;7.390;2022-07-22T14:23:54;95289.88;;;41.59;16.82
46638;BME280;32365;46.938;7.390;2022-07-22T14:26:22;95291.06;;;42.10;17.99
46638;BME280;32365;46.938;7.390;2022-07-22T14:28:49;95289.84;;;41.33;19.48
46638;BME280;32365;46.938;7.390;2022-07-22T14:31:16;95289.22;;;42.07;18.18
46638;BME280;32365;46.938;7.390;2022-07-22T14:33:43;95279.06;;;42.20;19.52
46638;BME280;32365;46.938;7.390;2022-07-22T14:36:10;95285.72;;;42.89;17.72
46638;BME280;32365;46.938;7.390;2022-07-22T14:38:36;95277.66;;;42.64;19.38
46638;BME280;32365;46.938;7.390;2022-07-22T14:41:03;95281.09;;;42.77;15.95
46638;BME280;32365;46.938;7.390;2022-07-22T14:43:31;95279.25;;;42.74;16.73
46638;BME280;32365;46.938;7.390;2022-07-22T14:45:58;95278.66;;;41.44;19.55
46638;BME280;32365;46.938;7.390;2022-07-22T14:48:25;95282.81;;;42.49;17.10
46638;BME280;32365;46.938;7.390;2022-07-22T14:50:51;95274.59;;;41.10;18.08
46638;BME280;32365;46.938;7.390;2022-07-22T14:53:18;95282.63;;;41.95;17.99
46638;BME280;32365;46.938;7.390;2022-07-22T14:55:45;95273.41;;;42.40;16.83
46638;BME280;32365;46.938;7.390;2022-07-22T14:58:12;95272.84;;;40.11;19.47
46638;BME280;32365;46.938;7.390;2022-07-22T15:00:40;95274.25;;;41.63;16.51
46638;BME280;32365;46.938;7.390;2022-07-22T15:03:07;95271.50;;;40.95;20.04
46638;BME280;32365;46.938;7.390;2022-07-22T15:05:34;95270.53;;;40.10;21.29
46638;BME280;32365;46.938;7.390;2022-07-22T15:08:00;95270.16;;;40.57;19.29
46638;BME280;32365;46.938;7.390;2022-07-22T15:10:27;95264.25;;;41.60;17.94
46638;BME280;32365;46.938;7.390;2022-07-22T15:12:54;95266.31;;;39.92;20.16
46638;BME280;32365;46.938;7.390;2022-07-22T15:15:21;95268.19;;;40.28;19.89
46638;BME280;32365;46.938;7.390;2022-07-22T15:17:50;95266.56;;;40.31;20.04
46638;BME280;32365;46.938;7.390;2022-07-22T15:20:17;95265.63;;;40.84;18.97
46638;BME280;32365;46.938;7.390;2022-07-22T15:22:44;95267.13;;;41.27;18.39
46638;BME280;32365;46.938;7.390;2022-07-22T15:25:10;95272.31;;;40.16;19.95
46638;BME280;32365;46.938;7.390;2022-07-22T15:27:37;95272.16;;;40.24;19.01
46638;BME280;32365;46.938;7.390;2022-07-22T15:30:06;95268.50;;;40.30;18.18
46638;BME280;32365;46.938;7.390;2022-07-22T15:32:33;95272.91;;;40.41;18.65
46638;BME280;32365;46.938;7.390;2022-07-22T15:35:01;95269.19;;;40.18;20.72
46638;BME280;32365;46.938;7.390;2022-07-22T15:37:28;95266.19;;;39.63;19.93
46638;BME280;32365;46.938;7.390;2022-07-22T15:39:55;95267.72;;;38.67;20.87
46638;BME280;32365;46.938;7.390;2022-07-22T15:42:21;95273.06;;;39.31;19.47
46638;BME280;32365;46.938;7.390;2022-07-22T15:44:48;95264.97;;;38.46;22.24
46638;BME280;32365;46.938;7.390;2022-07-22T15:47:15;95263.63;;;38.34;20.42
46638;BME280;32365;46.938;7.390;2022-07-22T15:49:42;95260.16;;;37.55;21.02
46638;BME280;32365;46.938;7.390;2022-07-22T15:52:10;95257.22;;;37.46;21.41
46638;BME280;32365;46.938;7.390;2022-07-22T15:54:37;95257.16;;;37.50;21.80
46638;BME280;32365;46.938;7.390;2022-07-22T15:57:06;95253.66;;;36.03;23.93
46638;BME280;32365;46.938;7.390;2022-07-22T15:59:50;95256.91;;;36.29;25.26
46638;BME280;32365;46.938;7.390;2022-07-22T16:02:18;95249.69;;;36.15;25.33
46638;BME280;32365;46.938;7.390;2022-07-22T16:04:44;95243.09;;;35.71;25.24
46638;BME280;32365;46.938;7.390;2022-07-22T16:07:12;95234.97;;;35.07;24.84
46638;BME280;32365;46.938;7.390;2022-07-22T16:09:39;95231.16;;;34.90;26.94
46638;BME280;32365;46.938;7.390;2022-07-22T16:12:06;95235.44;;;34.77;27.12
46638;BME280;32365;46.938;7.390;2022-07-22T16:14:33;95226.69;;;34.44;25.69
46638;BME280;32365;46.938;7.390;2022-07-22T16:16:59;95228.22;;;34.41;24.66
46638;BME280;32365;46.938;7.390;2022-07-22T16:19:26;95227.47;;;34.15;28.16
46638;BME280;32365;46.938;7.390;2022-07-22T16:21:53;95220.94;;;33.84;28.81
46638;BME280;32365;46.938;7.390;2022-07-22T16:24:21;95215.53;;;33.48;28.18
46638;BME280;32365;46.938;7.390;2022-07-22T16:26:48;95219.38;;;33.72;27.78
46638;BME280;32365;46.938;7.390;2022-07-22T16:29:14;95213.50;;;33.12;29.30
46638;BME280;32365;46.938;7.390;2022-07-22T16:31:41;95215.03;;;33.13;29.41
46638;BME280;32365;46.938;7.390;2022-07-22T16:34:08;95219.63;;;33.12;29.30
46638;BME280;32365;46.938;7.390;2022-07-22T16:36:34;95224.44;;;32.74;32.51
46638;BME280;32365;46.938;7.390;2022-07-22T16:39:02;95220.84;;;32.48;32.40
46638;BME280;32365;46.938;7.390;2022-07-22T16:41:30;95222.38;;;31.97;33.97
46638;BME280;32365;46.938;7.390;2022-07-22T16:43:57;95221.84;;;31.39;32.66
46638;BME280;32365;46.938;7.390;2022-07-22T16:46:24;95224.16;;;31.82;32.51
46638;BME280;32365;46.938;7.390;2022-07-22T16:48:50;95221.75;;;32.15;32.46
46638;BME280;32365;46.938;7.390;2022-07-22T16:51:17;95221.28;;;32.05;32.36
46638;BME280;32365;46.938;7.390;2022-07-22T16:53:44;95219.44;;;32.09;33.45
46638;BME280;32365;46.938;7.390;2022-07-22T16:56:11;95236.00;;;32.26;32.10
46638;BME280;32365;46.938;7.390;2022-07-22T16:58:39;95220.84;;;31.96;32.79
46638;BME280;32365;46.938;7.390;2022-07-22T17:01:06;95221.47;;;31.78;33.22
46638;BME280;32365;46.938;7.390;2022-07-22T17:03:33;95227.94;;;31.36;35.34
46638;BME280;32365;46.938;7.390;2022-07-22T17:05:59;95222.75;;;31.54;35.29
46638;BME280;32365;46.938;7.390;2022-07-22T17:08:26;95222.41;;;31.59;34.91
46638;BME280;32365;46.938;7.390;2022-07-22T17:10:53;95227.00;;;31.59;33.63
46638;BME280;32365;46.938;7.390;2022-07-22T17:13:20;95225.59;;;31.69;36.50
46638;BME280;32365;46.938;7.390;2022-07-22T17:15:48;95230.28;;;31.11;36.24
46638;BME280;32365;46.938;7.390;2022-07-22T17:18:14;95229.47;;;30.73;37.62
46638;BME280;32365;46.938;7.390;2022-07-22T17:20:41;95237.06;;;31.01;37.90
46638;BME280;32365;46.938;7.390;2022-07-22T17:23:08;95232.06;;;30.99;39.19
46638;BME280;32365;46.938;7.390;2022-07-22T17:25:34;95233.69;;;31.08;38.79
46638;BME280;32365;46.938;7.390;2022-07-22T17:28:01;95228.75;;;31.10;38.01
46638;BME280;32365;46.938;7.390;2022-07-22T17:30:28;95225.69;;;31.08;40.10
46638;BME280;32365;46.938;7.390;2022-07-22T17:32:56;95234.25;;;31.21;39.41
46638;BME280;32365;46.938;7.390;2022-07-22T17:35:23;95237.81;;;30.71;39.33
46638;BME280;32365;46.938;7.390;2022-07-22T17:37:50;95230.28;;;30.23;41.04
46638;BME280;32365;46.938;7.390;2022-07-22T17:40:16;95233.66;;;29.97;41.32
46638;BME280;32365;46.938;7.390;2022-07-22T17:42:43;95239.41;;;29.99;41.86
46638;BME280;32365;46.938;7.390;2022-07-22T17:45:10;95233.81;;;29.84;42.37
46638;BME280;32365;46.938;7.390;2022-07-22T17:47:37;95237.56;;;29.79;43.40
46638;BME280;32365;46.938;7.390;2022-07-22T17:50:06;95242.25;;;29.86;44.22
46638;BME280;32365;46.938;7.390;2022-07-22T17:52:34;95244.50;;;29.84;44.55
46638;BME280;32365;46.938;7.390;2022-07-22T17:55:00;95242.16;;;29.59;43.84
46638;BME280;32365;46.938;7.390;2022-07-22T17:57:27;95247.41;;;29.75;44.97
46638;BME280;32365;46.938;7.390;2022-07-22T17:59:54;95250.75;;;29.49;44.12
46638;BME280;32365;46.938;7.390;2022-07-22T18:02:21;95248.81;;;29.46;44.39
46638;BME280;32365;46.938;7.390;2022-07-22T18:04:47;95255.53;;;29.20;45.98
46638;BME280;32365;46.938;7.390;2022-07-22T18:07:15;95255.44;;;28.77;46.00
46638;BME280;32365;46.938;7.390;2022-07-22T18:09:43;95253.69;;;28.85;45.78
46638;BME280;32365;46.938;7.390;2022-07-22T18:12:10;95256.47;;;28.92;44.87
46638;BME280;32365;46.938;7.390;2022-07-22T18:14:36;95259.66;;;29.17;45.12
46638;BME280;32365;46.938;7.390;2022-07-22T18:17:03;95264.69;;;29.23;44.84
46638;BME280;32365;46.938;7.390;2022-07-22T18:19:30;95259.94;;;28.93;46.21
46638;BME280;32365;46.938;7.390;2022-07-22T18:21:57;95265.09;;;29.05;47.09
46638;BME280;32365;46.938;7.390;2022-07-22T18:24:26;95270.06;;;28.87;46.54
46638;BME280;32365;46.938;7.390;2022-07-22T18:26:52;95264.19;;;28.78;46.69
46638;BME280;32365;46.938;7.390;2022-07-22T18:29:22;95274.88;;;28.97;47.29
46638;BME280;32365;46.938;7.390;2022-07-22T18:31:48;95277.16;;;28.79;47.32
46638;BME280;32365;46.938;7.390;2022-07-22T18:34:15;95286.97;;;28.75;47.56
46638;BME280;32365;46.938;7.390;2022-07-22T18:36:42;95285.78;;;28.56;47.30
46638;BME280;32365;46.938;7.390;2022-07-22T18:39:08;95288.19;;;28.46;47.51
46638;BME280;32365;46.938;7.390;2022-07-22T18:41:37;95286.56;;;28.41;48.56
46638;BME280;32365;46.938;7.390;2022-07-22T18:44:03;95291.56;;;28.10;49.48
46638;BME280;32365;46.938;7.390;2022-07-22T18:46:30;95297.81;;;28.18;48.62
46638;BME280;32365;46.938;7.390;2022-07-22T18:48:57;95297.06;;;27.89;49.42
46638;BME280;32365;46.938;7.390;2022-07-22T18:51:23;95295.66;;;27.63;50.66
46638;BME280;32365;46.938;7.390;2022-07-22T18:53:50;95295.50;;;27.44;50.76
46638;BME280;32365;46.938;7.390;2022-07-22T18:56:17;95295.03;;;27.54;49.59
46638;BME280;32365;46.938;7.390;2022-07-22T18:58:45;95284.91;;;27.31;50.41
46638;BME280;32365;46.938;7.390;2022-07-22T19:01:12;95286.50;;;27.20;50.78
46638;BME280;32365;46.938;7.390;2022-07-22T19:03:38;95287.94;;;27.17;51.14
46638;BME280;32365;46.938;7.390;2022-07-22T19:06:05;95282.25;;;26.91;50.67
46638;BME280;32365;46.938;7.390;2022-07-22T19:08:32;95279.69;;;26.94;49.81
46638;BME280;32365;46.938;7.390;2022-07-22T19:10:59;95282.91;;;27.00;49.40
46638;BME280;32365;46.938;7.390;2022-07-22T19:13:26;95282.91;;;27.00;48.65
46638;BME280;32365;46.938;7.390;2022-07-22T19:15:54;95289.56;;;26.94;49.95
46638;BME280;32365;46.938;7.390;2022-07-22T19:18:21;95311.66;;;26.98;49.63
46638;BME280;32365;46.938;7.390;2022-07-22T19:20:48;95317.78;;;26.98;48.75
46638;BME280;32365;46.938;7.390;2022-07-22T19:23:15;95307.16;;;26.98;49.94
46638;BME280;32365;46.938;7.390;2022-07-22T19:25:42;95309.56;;;26.66;49.30
46638;BME280;32365;46.938;7.390;2022-07-22T19:28:10;95308.56;;;26.71;48.79
46638;BME280;32365;46.938;7.390;2022-07-22T19:30:36;95321.09;;;26.95;46.16
46638;BME280;32365;46.938;7.390;2022-07-22T19:33:05;95326.16;;;27.00;47.18
46638;BME280;32365;46.938;7.390;2022-07-22T19:35:32;95339.22;;;27.06;47.94
46638;BME280;32365;46.938;7.390;2022-07-22T19:37:58;95349.94;;;27.09;48.73
46638;BME280;32365;46.938;7.390;2022-07-22T19:40:26;95359.59;;;27.01;48.72
46638;BME280;32365;46.938;7.390;2022-07-22T19:42:53;95366.69;;;26.97;48.94
46638;BME280;32365;46.938;7.390;2022-07-22T19:45:20;95374.75;;;27.01;49.77
46638;BME280;32365;46.938;7.390;2022-07-22T19:47:47;95382.09;;;26.92;50.35
46638;BME280;32365;46.938;7.390;2022-07-22T19:50:15;95390.50;;;26.94;52.01
46638;BME280;32365;46.938;7.390;2022-07-22T19:52:42;95385.50;;;26.92;52.22
46638;BME280;32365;46.938;7.390;2022-07-22T19:55:10;95395.66;;;26.78;51.06
46638;BME280;32365;46.938;7.390;2022-07-22T19:57:37;95405.72;;;26.72;51.16
46638;BME280;32365;46.938;7.390;2022-07-22T20:00:05;95408.69;;;26.58;51.17
46638;BME280;32365;46.938;7.390;2022-07-22T20:02:33;95413.91;;;26.67;52.61
46638;BME280;32365;46.938;7.390;2022-07-22T20:04:59;95420.88;;;26.71;52.52
46638;BME280;32365;46.938;7.390;2022-07-22T20:07:27;95419.78;;;26.72;51.53
46638;BME280;32365;46.938;7.390;2022-07-22T20:09:54;95421.66;;;26.72;51.96
46638;BME280;32365;46.938;7.390;2022-07-22T20:12:21;95423.63;;;26.63;53.56
46638;BME280;32365;46.938;7.390;2022-07-22T20:14:48;95421.75;;;26.51;52.83
46638;BME280;32365;46.938;7.390;2022-07-22T20:17:14;95433.56;;;26.53;52.26
46638;BME280;32365;46.938;7.390;2022-07-22T20:19:41;95420.09;;;26.46;52.06
46638;BME280;32365;46.938;7.390;2022-07-22T20:22:08;95418.09;;;26.43;53.27
46638;BME280;32365;46.938;7.390;2022-07-22T20:24:36;95414.19;;;26.28;53.86
46638;BME280;32365;46.938;7.390;2022-07-22T20:27:03;95408.84;;;26.16;54.08
46638;BME280;32365;46.938;7.390;2022-07-22T20:29:30;95403.97;;;26.18;53.68
46638;BME280;32365;46.938;7.390;2022-07-22T20:31:56;95414.16;;;26.16;53.35
46638;BME280;32365;46.938;7.390;2022-07-22T20:34:23;95443.63;;;26.14;53.67
46638;BME280;32365;46.938;7.390;2022-07-22T20:36:50;95461.75;;;26.12;53.57
46638;BME280;32365;46.938;7.390;2022-07-22T20:39:18;95479.25;;;26.04;52.02
46638;BME280;32365;46.938;7.390;2022-07-22T20:41:46;95473.84;;;26.01;50.88
46638;BME280;32365;46.938;7.390;2022-07-22T20:44:13;95488.72;;;25.93;50.50
46638;BME280;32365;46.938;7.390;2022-07-22T20:46:40;95495.00;;;25.88;50.94
46638;BME280;32365;46.938;7.390;2022-07-22T20:49:07;95507.63;;;25.91;48.79
46638;BME280;32365;46.938;7.390;2022-07-22T20:51:34;95497.97;;;25.87;48.56
46638;BME280;32365;46.938;7.390;2022-07-22T20:54:01;95485.47;;;25.45;49.96
46638;BME280;32365;46.938;7.390;2022-07-22T20:56:27;95471.59;;;25.39;47.07
46638;BME280;32365;46.938;7.390;2022-07-22T20:58:55;95458.91;;;25.54;46.57
46638;BME280;32365;46.938;7.390;2022-07-22T21:01:22;95462.72;;;25.35;46.63
46638;BME280;32365;46.938;7.390;2022-07-22T21:03:49;95455.34;;;24.72;48.86
46638;BME280;32365;46.938;7.390;2022-07-22T21:06:16;95453.47;;;23.98;51.25
46638;BME280;32365;46.938;7.390;2022-07-22T21:08:43;95453.75;;;23.79;52.03
46638;BME280;32365;46.938;7.390;2022-07-22T21:11:10;95457.97;;;24.16;51.26
46638;BME280;32365;46.938;7.390;2022-07-22T21:13:37;95472.75;;;24.17;51.68
46638;BME280;32365;46.938;7.390;2022-07-22T21:16:05;95493.22;;;23.85;52.58
46638;BME280;32365;46.938;7.390;2022-07-22T21:18:32;95504.91;;;23.92;52.91
46638;BME280;32365;46.938;7.390;2022-07-22T21:20:59;95517.34;;;23.83;53.50
46638;BME280;32365;46.938;7.390;2022-07-22T21:23:27;95519.72;;;23.35;56.20
46638;BME280;32365;46.938;7.390;2022-07-22T21:25:53;95517.28;;;23.16;56.29
46638;BME280;32365;46.938;7.390;2022-07-22T21:28:20;95505.75;;;22.72;57.59
46638;BME280;32365;46.938;7.390;2022-07-22T21:30:47;95512.53;;;22.64;58.30
46638;BME280;32365;46.938;7.390;2022-07-22T21:33:15;95515.88;;;22.33;58.77
46638;BME280;32365;46.938;7.390;2022-07-22T21:35:41;95515.06;;;22.47;57.86
46638;BME280;32365;46.938;7.390;2022-07-22T21:38:08;95526.66;;;22.68;56.57
46638;BME280;32365;46.938;7.390;2022-07-22T21:40:35;95530.63;;;22.80;55.92
46638;BME280;32365;46.938;7.390;2022-07-22T21:43:02;95530.19;;;22.55;57.01
46638;BME280;32365;46.938;7.390;2022-07-22T21:45:29;95511.97;;;22.30;57.82
46638;BME280;32365;46.938;7.390;2022-07-22T21:47:56;95510.16;;;22.40;56.46
46638;BME280;32365;46.938;7.390;2022-07-22T21:50:24;95523.91;;;22.73;55.24
46638;BME280;32365;46.938;7.390;2022-07-22T21:52:51;95567.19;;;22.95;55.27
46638;BME280;32365;46.938;7.390;2022-07-22T21:55:18;95611.16;;;23.00;55.26
46638;BME280;32365;46.938;7.390;2022-07-22T21:57:44;95638.53;;;23.04;55.65
46638;BME280;32365;46.938;7.390;2022-07-22T22:00:12;95636.38;;;23.06;55.72
46638;BME280;32365;46.938;7.390;2022-07-22T22:02:39;95600.75;;;22.72;59.15
